sensor_id;sensor_type;location;lat;lon;timestamp;temperature;humidity
61201;DHT22;47065;52.898;6.992;2023-09-18T00:00:03;17.30;99.90
61201;DHT22;47065;52.898;6.992;2023-09-18T00:02:38;17.30;99.90
61201;DHT22;47065;52.898;6.992;2023-09-18T00:05:04;17.30;99.90
61201;DHT22;47065;52.898;6.992;2023-09-18T00:07:30;17.20;99.90
61201;DHT22;47065;52.898;6.992;2023-09-18T00:09:55;17.20;99.90
61201;DHT22;47065;52.898;6.992;2023-09-18T00:12:21;17.20;99.90
61201;DHT22;47065;52.898;6.992;2023-09-18T00:14:50;17.20;99.90
61201;DHT22;47065;52.898;6.992;2023-09-18T00:17:16;17.20;99.90
61201;DHT22;47065;52.898;6.992;2023-09-18T00:19:45;17.20;99.90
61201;DHT22;47065;52.898;6.992;2023-09-18T00:22:11;17.20;99.90
61201;DHT22;47065;52.898;6.992;2023-09-18T00:24:37;17.20;99.90
61201;DHT22;47065;52.898;6.992;2023-09-18T00:27:03;17.20;99.90
61201;DHT22;47065;52.898;6.992;2023-09-18T00:29:28;17.10;99.90
61201;DHT22;47065;52.898;6.992;2023-09-18T00:31:54;17.20;99.90
61201;DHT22;47065;52.898;6.992;2023-09-18T00:34:20;17.10;99.90
61201;DHT22;47065;52.898;6.992;2023-09-18T00:36:45;17.20;99.90
61201;DHT22;47065;52.898;6.992;2023-09-18T00:39:11;17.10;99.90
61201;DHT22;47065;52.898;6.992;2023-09-18T00:41:37;17.10;99.90
61201;DHT22;47065;52.898;6.992;2023-09-18T00:44:04;17.10;99.90
61201;DHT22;47065;52.898;6.992;2023-09-18T00:46:30;17.00;99.90
61201;DHT22;47065;52.898;6.992;2023-09-18T00:48:56;17.00;99.90
61201;DHT22;47065;52.898;6.992;2023-09-18T00:51:22;17.00;99.90
61201;DHT22;47065;52.898;6.992;2023-09-18T00:53:48;17.10;99.90
61201;DHT22;47065;52.898;6.992;2023-09-18T00:56:15;17.10;99.90
61201;DHT22;47065;52.898;6.992;2023-09-18T00:58:41;17.00;99.90
61201;DHT22;47065;52.898;6.992;2023-09-18T01:01:07;17.00;99.90
61201;DHT22;47065;52.898;6.992;2023-09-18T01:03:34;17.00;99.90
61201;DHT22;47065;52.898;6.992;2023-09-18T01:06:00;17.00;99.90
61201;DHT22;47065;52.898;6.992;2023-09-18T01:08:25;17.10;99.90
61201;DHT22;47065;52.898;6.992;2023-09-18T01:11:08;17.00;99.90
61201;DHT22;47065;52.898;6.992;2023-09-18T01:13:37;17.10;99.90
61201;DHT22;47065;52.898;6.992;2023-09-18T01:16:24;17.10;99.90
61201;DHT22;47065;52.898;6.992;2023-09-18T01:18:50;17.10;99.90
61201;DHT22;47065;52.898;6.992;2023-09-18T01:21:19;17.00;99.90
61201;DHT22;47065;52.898;6.992;2023-09-18T01:23:45;17.10;99.90
61201;DHT22;47065;52.898;6.992;2023-09-18T01:26:10;17.00;99.90
61201;DHT22;47065;52.898;6.992;2023-09-18T01:28:36;17.10;99.90
61201;DHT22;47065;52.898;6.992;2023-09-18T01:31:01;17.00;99.90
61201;DHT22;47065;52.898;6.992;2023-09-18T01:33:29;17.00;99.90
61201;DHT22;47065;52.898;6.992;2023-09-18T01:35:55;17.00;99.90
61201;DHT22;47065;52.898;6.992;2023-09-18T01:38:23;16.90;99.90
61201;DHT22;47065;52.898;6.992;2023-09-18T01:40:49;17.00;99.90
61201;DHT22;47065;52.898;6.992;2023-09-18T01:43:15;17.00;99.90
61201;DHT22;47065;52.898;6.992;2023-09-18T01:45:42;16.90;99.90
61201;DHT22;47065;52.898;6.992;2023-09-18T01:48:08;16.90;99.90
61201;DHT22;47065;52.898;6.992;2023-09-18T01:50:33;16.90;99.90
61201;DHT22;47065;52.898;6.992;2023-09-18T01:52:59;16.90;99.90
61201;DHT22;47065;52.898;6.992;2023-09-18T01:55:25;16.90;99.90
61201;DHT22;47065;52.898;6.992;2023-09-18T01:57:50;16.90;99.90
61201;DHT22;47065;52.898;6.992;2023-09-18T02:00:16;16.90;99.90
61201;DHT22;47065;52.898;6.992;2023-09-18T02:02:42;16.90;99.90
61201;DHT22;47065;52.898;6.992;2023-09-18T02:05:07;16.90;99.90
61201;DHT22;47065;52.898;6.992;2023-09-18T02:07:33;16.90;99.90
61201;DHT22;47065;52.898;6.992;2023-09-18T02:09:59;16.90;99.90
61201;DHT22;47065;52.898;6.992;2023-09-18T02:12:25;16.90;99.90
61201;DHT22;47065;52.898;6.992;2023-09-18T02:14:50;16.90;99.90
61201;DHT22;47065;52.898;6.992;2023-09-18T02:17:16;16.90;99.90
61201;DHT22;47065;52.898;6.992;2023-09-18T02:19:41;16.90;99.90
61201;DHT22;47065;52.898;6.992;2023-09-18T02:22:08;16.90;99.90
61201;DHT22;47065;52.898;6.992;2023-09-18T02:24:34;16.90;99.90
61201;DHT22;47065;52.898;6.992;2023-09-18T02:27:00;16.90;99.90
61201;DHT22;47065;52.898;6.992;2023-09-18T02:29:25;16.90;99.90
61201;DHT22;47065;52.898;6.992;2023-09-18T02:31:51;16.90;99.90
61201;DHT22;47065;52.898;6.992;2023-09-18T02:34:17;16.90;99.90
61201;DHT22;47065;52.898;6.992;2023-09-18T02:36:44;16.90;99.90
61201;DHT22;47065;52.898;6.992;2023-09-18T02:39:10;16.90;99.90
61201;DHT22;47065;52.898;6.992;2023-09-18T02:41:35;17.00;99.90
61201;DHT22;47065;52.898;6.992;2023-09-18T02:44:01;16.90;99.90
61201;DHT22;47065;52.898;6.992;2023-09-18T02:46:26;17.00;99.90
61201;DHT22;47065;52.898;6.992;2023-09-18T02:48:52;17.00;99.90
61201;DHT22;47065;52.898;6.992;2023-09-18T02:51:18;17.00;99.90
61201;DHT22;47065;52.898;6.992;2023-09-18T02:53:43;17.00;99.90
61201;DHT22;47065;52.898;6.992;2023-09-18T02:56:09;17.10;99.90
61201;DHT22;47065;52.898;6.992;2023-09-18T02:58:35;17.10;99.90
61201;DHT22;47065;52.898;6.992;2023-09-18T03:01:00;17.10;99.90
61201;DHT22;47065;52.898;6.992;2023-09-18T03:03:29;17.20;99.90
61201;DHT22;47065;52.898;6.992;2023-09-18T03:06:03;17.20;99.90
61201;DHT22;47065;52.898;6.992;2023-09-18T03:08:30;17.10;99.90
61201;DHT22;47065;52.898;6.992;2023-09-18T03:10:55;17.20;99.90
61201;DHT22;47065;52.898;6.992;2023-09-18T03:13:21;17.20;99.90
61201;DHT22;47065;52.898;6.992;2023-09-18T03:15:47;17.20;99.90
61201;DHT22;47065;52.898;6.992;2023-09-18T03:18:13;17.30;99.90
61201;DHT22;47065;52.898;6.992;2023-09-18T03:20:40;17.30;99.90
61201;DHT22;47065;52.898;6.992;2023-09-18T03:23:06;17.30;99.90
61201;DHT22;47065;52.898;6.992;2023-09-18T03:25:31;17.30;99.90
61201;DHT22;47065;52.898;6.992;2023-09-18T03:27:57;17.30;99.90
61201;DHT22;47065;52.898;6.992;2023-09-18T03:30:23;17.40;99.90
61201;DHT22;47065;52.898;6.992;2023-09-18T03:32:50;17.40;99.90
61201;DHT22;47065;52.898;6.992;2023-09-18T03:35:16;17.30;99.90
61201;DHT22;47065;52.898;6.992;2023-09-18T03:40:11;17.40;99.90
61201;DHT22;47065;52.898;6.992;2023-09-18T03:42:36;17.30;99.90
61201;DHT22;47065;52.898;6.992;2023-09-18T03:45:02;17.40;99.90
61201;DHT22;47065;52.898;6.992;2023-09-18T03:47:28;17.40;99.90
61201;DHT22;47065;52.898;6.992;2023-09-18T03:49:54;17.40;99.90
61201;DHT22;47065;52.898;6.992;2023-09-18T03:52:20;17.40;99.90
61201;DHT22;47065;52.898;6.992;2023-09-18T03:54:45;17.40;99.90
61201;DHT22;47065;52.898;6.992;2023-09-18T03:57:11;17.40;99.90
61201;DHT22;47065;52.898;6.992;2023-09-18T03:59:36;17.40;99.90
61201;DHT22;47065;52.898;6.992;2023-09-18T04:02:02;17.50;99.90
61201;DHT22;47065;52.898;6.992;2023-09-18T04:04:29;17.40;99.90
61201;DHT22;47065;52.898;6.992;2023-09-18T04:06:55;17.40;99.90
61201;DHT22;47065;52.898;6.992;2023-09-18T04:09:21;17.50;99.90
61201;DHT22;47065;52.898;6.992;2023-09-18T04:11:46;17.50;99.90
61201;DHT22;47065;52.898;6.992;2023-09-18T04:14:12;17.50;99.90
61201;DHT22;47065;52.898;6.992;2023-09-18T04:16:37;17.50;99.90
61201;DHT22;47065;52.898;6.992;2023-09-18T04:19:05;17.50;99.90
61201;DHT22;47065;52.898;6.992;2023-09-18T04:21:31;17.50;99.90
61201;DHT22;47065;52.898;6.992;2023-09-18T04:23:57;17.50;99.90
61201;DHT22;47065;52.898;6.992;2023-09-18T04:26:27;17.50;99.90
61201;DHT22;47065;52.898;6.992;2023-09-18T04:28:59;17.50;99.90
61201;DHT22;47065;52.898;6.992;2023-09-18T04:31:25;17.50;99.90
61201;DHT22;47065;52.898;6.992;2023-09-18T04:33:51;17.50;99.90
61201;DHT22;47065;52.898;6.992;2023-09-18T04:36:16;17.50;99.90
61201;DHT22;47065;52.898;6.992;2023-09-18T04:38:42;17.50;99.90
61201;DHT22;47065;52.898;6.992;2023-09-18T04:41:07;17.50;99.90
61201;DHT22;47065;52.898;6.992;2023-09-18T04:43:34;17.50;99.90
61201;DHT22;47065;52.898;6.992;2023-09-18T04:46:01;17.60;99.90
61201;DHT22;47065;52.898;6.992;2023-09-18T04:48:29;17.60;99.90
61201;DHT22;47065;52.898;6.992;2023-09-18T04:50:55;17.60;99.90
61201;DHT22;47065;52.898;6.992;2023-09-18T04:53:21;17.60;99.90
61201;DHT22;47065;52.898;6.992;2023-09-18T04:55:47;17.60;99.90
61201;DHT22;47065;52.898;6.992;2023-09-18T04:58:19;17.60;99.90
61201;DHT22;47065;52.898;6.992;2023-09-18T05:00:45;17.60;99.90
61201;DHT22;47065;52.898;6.992;2023-09-18T05:03:12;17.60;99.90
61201;DHT22;47065;52.898;6.992;2023-09-18T05:05:38;17.70;99.90
61201;DHT22;47065;52.898;6.992;2023-09-18T05:08:07;17.70;99.90
61201;DHT22;47065;52.898;6.992;2023-09-18T05:10:36;17.70;99.90
61201;DHT22;47065;52.898;6.992;2023-09-18T05:13:03;17.70;99.90
61201;DHT22;47065;52.898;6.992;2023-09-18T05:15:29;17.80;99.90
61201;DHT22;47065;52.898;6.992;2023-09-18T05:17:55;17.80;99.90
61201;DHT22;47065;52.898;6.992;2023-09-18T05:20:24;17.80;99.90
61201;DHT22;47065;52.898;6.992;2023-09-18T05:22:54;17.80;99.90
61201;DHT22;47065;52.898;6.992;2023-09-18T05:25:23;17.80;99.90
61201;DHT22;47065;52.898;6.992;2023-09-18T05:27:51;17.90;99.90
61201;DHT22;47065;52.898;6.992;2023-09-18T05:30:29;17.80;99.90
61201;DHT22;47065;52.898;6.992;2023-09-18T05:32:58;17.90;99.90
61201;DHT22;47065;52.898;6.992;2023-09-18T05:35:34;17.90;99.90
61201;DHT22;47065;52.898;6.992;2023-09-18T05:38:02;17.90;99.90
61201;DHT22;47065;52.898;6.992;2023-09-18T05:40:29;17.90;99.90
61201;DHT22;47065;52.898;6.992;2023-09-18T05:42:56;17.90;99.90
61201;DHT22;47065;52.898;6.992;2023-09-18T05:45:22;18.00;99.90
61201;DHT22;47065;52.898;6.992;2023-09-18T05:47:48;18.00;99.90
61201;DHT22;47065;52.898;6.992;2023-09-18T05:50:14;18.00;99.90
61201;DHT22;47065;52.898;6.992;2023-09-18T05:52:48;18.10;99.90
61201;DHT22;47065;52.898;6.992;2023-09-18T05:55:15;18.10;99.90
61201;DHT22;47065;52.898;6.992;2023-09-18T05:57:41;18.20;99.90
61201;DHT22;47065;52.898;6.992;2023-09-18T06:00:07;18.20;99.90
61201;DHT22;47065;52.898;6.992;2023-09-18T06:02:33;18.30;99.90
61201;DHT22;47065;52.898;6.992;2023-09-18T06:04:59;18.30;99.90
61201;DHT22;47065;52.898;6.992;2023-09-18T06:07:29;18.40;99.90
61201;DHT22;47065;52.898;6.992;2023-09-18T06:09:56;18.40;99.90
61201;DHT22;47065;52.898;6.992;2023-09-18T06:12:22;18.40;99.90
61201;DHT22;47065;52.898;6.992;2023-09-18T06:14:48;18.50;99.90
61201;DHT22;47065;52.898;6.992;2023-09-18T06:17:15;18.60;99.90
61201;DHT22;47065;52.898;6.992;2023-09-18T06:19:41;18.60;99.90
61201;DHT22;47065;52.898;6.992;2023-09-18T06:22:07;18.70;99.90
61201;DHT22;47065;52.898;6.992;2023-09-18T06:24:35;18.70;99.90
61201;DHT22;47065;52.898;6.992;2023-09-18T06:27:01;18.80;99.90
61201;DHT22;47065;52.898;6.992;2023-09-18T06:29:27;18.90;99.90
61201;DHT22;47065;52.898;6.992;2023-09-18T06:31:53;18.90;99.90
61201;DHT22;47065;52.898;6.992;2023-09-18T06:34:18;19.00;99.90
61201;DHT22;47065;52.898;6.992;2023-09-18T06:36:44;19.00;99.90
61201;DHT22;47065;52.898;6.992;2023-09-18T06:39:10;19.00;99.90
61201;DHT22;47065;52.898;6.992;2023-09-18T06:41:35;19.00;99.90
61201;DHT22;47065;52.898;6.992;2023-09-18T06:44:02;19.00;99.90
61201;DHT22;47065;52.898;6.992;2023-09-18T06:46:28;19.00;99.90
61201;DHT22;47065;52.898;6.992;2023-09-18T06:48:54;18.90;99.90
61201;DHT22;47065;52.898;6.992;2023-09-18T06:51:22;18.80;99.90
61201;DHT22;47065;52.898;6.992;2023-09-18T06:53:48;18.80;99.90
61201;DHT22;47065;52.898;6.992;2023-09-18T06:56:14;18.80;99.90
61201;DHT22;47065;52.898;6.992;2023-09-18T06:58:39;18.70;99.90
61201;DHT22;47065;52.898;6.992;2023-09-18T07:01:05;18.70;99.90
61201;DHT22;47065;52.898;6.992;2023-09-18T07:03:35;18.70;99.90
61201;DHT22;47065;52.898;6.992;2023-09-18T07:06:02;18.70;99.90
61201;DHT22;47065;52.898;6.992;2023-09-18T07:08:29;18.70;99.90
61201;DHT22;47065;52.898;6.992;2023-09-18T07:10:56;18.70;99.90
61201;DHT22;47065;52.898;6.992;2023-09-18T07:13:22;18.70;99.90
61201;DHT22;47065;52.898;6.992;2023-09-18T07:15:48;18.70;99.90
61201;DHT22;47065;52.898;6.992;2023-09-18T07:18:13;18.70;99.90
61201;DHT22;47065;52.898;6.992;2023-09-18T07:20:40;18.70;99.90
61201;DHT22;47065;52.898;6.992;2023-09-18T07:23:07;18.70;99.90
61201;DHT22;47065;52.898;6.992;2023-09-18T07:25:32;18.80;99.90
61201;DHT22;47065;52.898;6.992;2023-09-18T07:27:58;18.80;99.90
61201;DHT22;47065;52.898;6.992;2023-09-18T07:30:24;18.80;99.90
61201;DHT22;47065;52.898;6.992;2023-09-18T07:32:55;18.80;99.90
61201;DHT22;47065;52.898;6.992;2023-09-18T07:35:24;18.80;99.90
61201;DHT22;47065;52.898;6.992;2023-09-18T07:37:51;18.80;99.90
61201;DHT22;47065;52.898;6.992;2023-09-18T07:40:16;18.90;99.90
61201;DHT22;47065;52.898;6.992;2023-09-18T07:42:42;18.80;99.90
61201;DHT22;47065;52.898;6.992;2023-09-18T07:45:11;18.80;99.90
61201;DHT22;47065;52.898;6.992;2023-09-18T07:47:37;18.90;99.90
61201;DHT22;47065;52.898;6.992;2023-09-18T07:50:03;18.90;99.90
61201;DHT22;47065;52.898;6.992;2023-09-18T07:52:29;18.90;99.90
61201;DHT22;47065;52.898;6.992;2023-09-18T07:54:55;18.90;99.90
61201;DHT22;47065;52.898;6.992;2023-09-18T07:57:23;19.00;99.90
61201;DHT22;47065;52.898;6.992;2023-09-18T07:59:49;19.00;99.90
61201;DHT22;47065;52.898;6.992;2023-09-18T08:02:15;19.10;99.90
61201;DHT22;47065;52.898;6.992;2023-09-18T08:04:42;19.10;99.90
61201;DHT22;47065;52.898;6.992;2023-09-18T08:07:08;19.10;99.90
61201;DHT22;47065;52.898;6.992;2023-09-18T08:09:34;19.20;99.90
61201;DHT22;47065;52.898;6.992;2023-09-18T08:12:06;19.20;99.90
61201;DHT22;47065;52.898;6.992;2023-09-18T08:14:32;19.20;99.90
61201;DHT22;47065;52.898;6.992;2023-09-18T08:17:01;19.30;99.90
61201;DHT22;47065;52.898;6.992;2023-09-18T08:19:26;19.30;99.90
61201;DHT22;47065;52.898;6.992;2023-09-18T08:21:56;19.30;99.90
61201;DHT22;47065;52.898;6.992;2023-09-18T08:24:22;19.40;99.90
61201;DHT22;47065;52.898;6.992;2023-09-18T08:26:49;19.40;99.90
61201;DHT22;47065;52.898;6.992;2023-09-18T08:29:14;19.40;99.90
61201;DHT22;47065;52.898;6.992;2023-09-18T08:31:40;19.40;99.90
61201;DHT22;47065;52.898;6.992;2023-09-18T08:34:06;19.40;99.90
61201;DHT22;47065;52.898;6.992;2023-09-18T08:36:32;19.50;99.90
61201;DHT22;47065;52.898;6.992;2023-09-18T08:38:58;19.50;99.90
61201;DHT22;47065;52.898;6.992;2023-09-18T08:41:24;19.50;99.90
61201;DHT22;47065;52.898;6.992;2023-09-18T08:43:59;19.50;99.90
61201;DHT22;47065;52.898;6.992;2023-09-18T08:46:25;19.50;99.90
61201;DHT22;47065;52.898;6.992;2023-09-18T08:48:51;19.50;99.90
61201;DHT22;47065;52.898;6.992;2023-09-18T08:51:18;19.60;99.90
61201;DHT22;47065;52.898;6.992;2023-09-18T08:53:44;19.60;99.90
61201;DHT22;47065;52.898;6.992;2023-09-18T08:56:12;19.60;99.90
61201;DHT22;47065;52.898;6.992;2023-09-18T08:58:39;19.70;99.90
61201;DHT22;47065;52.898;6.992;2023-09-18T09:01:08;19.70;99.90
61201;DHT22;47065;52.898;6.992;2023-09-18T09:03:39;19.70;99.90
61201;DHT22;47065;52.898;6.992;2023-09-18T09:06:09;19.70;99.90
61201;DHT22;47065;52.898;6.992;2023-09-18T09:08:36;19.70;99.90
61201;DHT22;47065;52.898;6.992;2023-09-18T09:11:05;19.80;99.90
61201;DHT22;47065;52.898;6.992;2023-09-18T09:13:31;19.80;99.90
61201;DHT22;47065;52.898;6.992;2023-09-18T09:15:58;19.90;99.90
61201;DHT22;47065;52.898;6.992;2023-09-18T09:18:26;20.00;99.90
61201;DHT22;47065;52.898;6.992;2023-09-18T09:20:56;20.10;99.90
61201;DHT22;47065;52.898;6.992;2023-09-18T09:23:24;20.10;99.90
61201;DHT22;47065;52.898;6.992;2023-09-18T09:25:50;20.10;99.90
61201;DHT22;47065;52.898;6.992;2023-09-18T09:28:16;20.10;99.90
61201;DHT22;47065;52.898;6.992;2023-09-18T09:31:00;20.10;99.90
61201;DHT22;47065;52.898;6.992;2023-09-18T09:33:27;20.20;99.90
61201;DHT22;47065;52.898;6.992;2023-09-18T09:35:53;20.20;99.90
61201;DHT22;47065;52.898;6.992;2023-09-18T09:38:19;20.30;99.90
61201;DHT22;47065;52.898;6.992;2023-09-18T09:40:47;20.30;99.90
61201;DHT22;47065;52.898;6.992;2023-09-18T09:43:13;20.40;99.90
61201;DHT22;47065;52.898;6.992;2023-09-18T09:45:40;20.40;99.90
61201;DHT22;47065;52.898;6.992;2023-09-18T09:48:07;20.50;99.90
61201;DHT22;47065;52.898;6.992;2023-09-18T09:50:35;20.50;99.90
61201;DHT22;47065;52.898;6.992;2023-09-18T09:53:11;20.60;99.90
61201;DHT22;47065;52.898;6.992;2023-09-18T09:55:37;20.70;99.90
61201;DHT22;47065;52.898;6.992;2023-09-18T09:58:05;20.70;99.90
61201;DHT22;47065;52.898;6.992;2023-09-18T10:00:33;20.80;99.90
61201;DHT22;47065;52.898;6.992;2023-09-18T10:03:04;20.80;99.90
61201;DHT22;47065;52.898;6.992;2023-09-18T10:05:35;21.00;99.90
61201;DHT22;47065;52.898;6.992;2023-09-18T10:08:07;21.10;99.90
61201;DHT22;47065;52.898;6.992;2023-09-18T10:10:39;21.20;99.90
61201;DHT22;47065;52.898;6.992;2023-09-18T10:13:12;21.20;99.90
61201;DHT22;47065;52.898;6.992;2023-09-18T10:15:42;21.30;99.90
61201;DHT22;47065;52.898;6.992;2023-09-18T10:18:18;21.30;99.90
61201;DHT22;47065;52.898;6.992;2023-09-18T10:20:47;21.30;99.90
61201;DHT22;47065;52.898;6.992;2023-09-18T10:23:25;21.30;99.90
61201;DHT22;47065;52.898;6.992;2023-09-18T10:25:55;21.30;99.90
61201;DHT22;47065;52.898;6.992;2023-09-18T10:28:23;21.40;99.90
61201;DHT22;47065;52.898;6.992;2023-09-18T10:30:51;21.50;99.90
61201;DHT22;47065;52.898;6.992;2023-09-18T10:33:17;21.50;99.90
61201;DHT22;47065;52.898;6.992;2023-09-18T10:35:43;21.60;99.90
61201;DHT22;47065;52.898;6.992;2023-09-18T10:38:14;21.60;99.90
61201;DHT22;47065;52.898;6.992;2023-09-18T10:40:41;21.60;99.90
61201;DHT22;47065;52.898;6.992;2023-09-18T10:43:11;21.70;99.90
61201;DHT22;47065;52.898;6.992;2023-09-18T10:45:39;21.90;99.90
61201;DHT22;47065;52.898;6.992;2023-09-18T10:48:07;22.00;99.90
61201;DHT22;47065;52.898;6.992;2023-09-18T10:50:34;22.00;99.90
61201;DHT22;47065;52.898;6.992;2023-09-18T10:53:00;22.10;99.90
61201;DHT22;47065;52.898;6.992;2023-09-18T10:55:26;22.00;99.90
61201;DHT22;47065;52.898;6.992;2023-09-18T10:57:56;22.00;99.90
61201;DHT22;47065;52.898;6.992;2023-09-18T11:00:29;22.00;99.90
61201;DHT22;47065;52.898;6.992;2023-09-18T11:03:13;22.10;99.90
61201;DHT22;47065;52.898;6.992;2023-09-18T11:05:39;22.30;99.90
61201;DHT22;47065;52.898;6.992;2023-09-18T11:13:31;22.80;99.90
61201;DHT22;47065;52.898;6.992;2023-09-18T11:18:50;23.10;99.90
61201;DHT22;47065;52.898;6.992;2023-09-18T11:21:18;23.20;99.90
61201;DHT22;47065;52.898;6.992;2023-09-18T11:23:46;23.30;99.90
61201;DHT22;47065;52.898;6.992;2023-09-18T11:26:12;23.30;99.90
61201;DHT22;47065;52.898;6.992;2023-09-18T11:28:40;23.40;99.90
61201;DHT22;47065;52.898;6.992;2023-09-18T11:31:08;23.60;99.90
61201;DHT22;47065;52.898;6.992;2023-09-18T11:36:08;23.80;99.90
61201;DHT22;47065;52.898;6.992;2023-09-18T11:38:58;23.80;99.90
61201;DHT22;47065;52.898;6.992;2023-09-18T11:41:30;23.80;99.90
61201;DHT22;47065;52.898;6.992;2023-09-18T11:46:55;23.60;99.90
61201;DHT22;47065;52.898;6.992;2023-09-18T11:49:21;23.50;99.90
61201;DHT22;47065;52.898;6.992;2023-09-18T11:51:48;23.60;99.90
61201;DHT22;47065;52.898;6.992;2023-09-18T11:54:15;23.70;99.90
61201;DHT22;47065;52.898;6.992;2023-09-18T11:56:42;23.70;99.90
61201;DHT22;47065;52.898;6.992;2023-09-18T11:59:08;23.90;99.90
61201;DHT22;47065;52.898;6.992;2023-09-18T12:01:36;24.00;99.90
61201;DHT22;47065;52.898;6.992;2023-09-18T12:04:02;24.00;99.90
61201;DHT22;47065;52.898;6.992;2023-09-18T12:06:35;24.00;99.90
61201;DHT22;47065;52.898;6.992;2023-09-18T12:09:02;23.90;99.90
61201;DHT22;47065;52.898;6.992;2023-09-18T12:11:29;24.00;99.90
61201;DHT22;47065;52.898;6.992;2023-09-18T12:13:55;24.00;99.90
61201;DHT22;47065;52.898;6.992;2023-09-18T12:16:21;24.10;99.90
61201;DHT22;47065;52.898;6.992;2023-09-18T12:18:50;24.10;99.90
61201;DHT22;47065;52.898;6.992;2023-09-18T12:21:16;24.20;99.90
61201;DHT22;47065;52.898;6.992;2023-09-18T12:23:44;24.30;99.90
61201;DHT22;47065;52.898;6.992;2023-09-18T12:26:15;24.40;99.90
61201;DHT22;47065;52.898;6.992;2023-09-18T12:28:42;24.50;99.90
61201;DHT22;47065;52.898;6.992;2023-09-18T12:31:15;24.60;99.90
61201;DHT22;47065;52.898;6.992;2023-09-18T12:33:42;24.60;99.90
61201;DHT22;47065;52.898;6.992;2023-09-18T12:36:18;24.60;99.90
61201;DHT22;47065;52.898;6.992;2023-09-18T12:38:45;24.40;99.90
61201;DHT22;47065;52.898;6.992;2023-09-18T12:41:20;24.30;99.90
61201;DHT22;47065;52.898;6.992;2023-09-18T12:43:45;24.30;99.90
61201;DHT22;47065;52.898;6.992;2023-09-18T12:46:11;24.20;99.90
61201;DHT22;47065;52.898;6.992;2023-09-18T12:48:38;24.20;99.90
61201;DHT22;47065;52.898;6.992;2023-09-18T12:51:07;24.00;99.90
61201;DHT22;47065;52.898;6.992;2023-09-18T12:53:33;23.80;99.90
61201;DHT22;47065;52.898;6.992;2023-09-18T12:56:10;23.60;99.90
61201;DHT22;47065;52.898;6.992;2023-09-18T12:58:38;23.30;99.90
61201;DHT22;47065;52.898;6.992;2023-09-18T13:01:08;23.00;99.90
61201;DHT22;47065;52.898;6.992;2023-09-18T13:03:40;22.80;99.90
61201;DHT22;47065;52.898;6.992;2023-09-18T13:06:11;22.60;99.90
61201;DHT22;47065;52.898;6.992;2023-09-18T13:08:38;22.40;99.90
61201;DHT22;47065;52.898;6.992;2023-09-18T13:11:06;22.20;99.90
61201;DHT22;47065;52.898;6.992;2023-09-18T13:13:32;22.10;99.90
61201;DHT22;47065;52.898;6.992;2023-09-18T13:15:59;21.90;99.90
61201;DHT22;47065;52.898;6.992;2023-09-18T13:18:26;21.80;99.90
61201;DHT22;47065;52.898;6.992;2023-09-18T13:20:52;21.80;99.90
61201;DHT22;47065;52.898;6.992;2023-09-18T13:23:19;21.80;99.90
61201;DHT22;47065;52.898;6.992;2023-09-18T13:25:45;21.90;99.90
61201;DHT22;47065;52.898;6.992;2023-09-18T13:28:13;22.10;99.90
61201;DHT22;47065;52.898;6.992;2023-09-18T13:30:42;22.40;99.90
61201;DHT22;47065;52.898;6.992;2023-09-18T13:33:12;22.60;99.90
61201;DHT22;47065;52.898;6.992;2023-09-18T13:35:41;22.70;99.90
61201;DHT22;47065;52.898;6.992;2023-09-18T13:38:08;22.80;99.90
61201;DHT22;47065;52.898;6.992;2023-09-18T13:40:35;22.90;99.90
61201;DHT22;47065;52.898;6.992;2023-09-18T13:43:05;23.00;99.90
61201;DHT22;47065;52.898;6.992;2023-09-18T13:45:31;23.10;99.90
61201;DHT22;47065;52.898;6.992;2023-09-18T13:47:57;23.10;99.90
61201;DHT22;47065;52.898;6.992;2023-09-18T13:50:23;23.20;99.90
61201;DHT22;47065;52.898;6.992;2023-09-18T13:52:48;23.30;99.90
61201;DHT22;47065;52.898;6.992;2023-09-18T13:55:14;23.50;99.90
61201;DHT22;47065;52.898;6.992;2023-09-18T13:57:40;23.60;99.90
61201;DHT22;47065;52.898;6.992;2023-09-18T14:00:07;23.80;99.90
61201;DHT22;47065;52.898;6.992;2023-09-18T14:02:35;23.80;99.90
61201;DHT22;47065;52.898;6.992;2023-09-18T14:05:00;23.80;99.90
61201;DHT22;47065;52.898;6.992;2023-09-18T14:07:26;23.70;99.90
61201;DHT22;47065;52.898;6.992;2023-09-18T14:09:52;23.60;99.90
61201;DHT22;47065;52.898;6.992;2023-09-18T14:12:17;23.50;99.90
61201;DHT22;47065;52.898;6.992;2023-09-18T14:14:43;23.50;99.90
61201;DHT22;47065;52.898;6.992;2023-09-18T14:17:10;23.50;99.90
61201;DHT22;47065;52.898;6.992;2023-09-18T14:19:35;23.50;99.90
61201;DHT22;47065;52.898;6.992;2023-09-18T14:22:07;23.50;99.90
61201;DHT22;47065;52.898;6.992;2023-09-18T14:24:33;23.50;99.90
61201;DHT22;47065;52.898;6.992;2023-09-18T14:27:03;23.50;99.90
61201;DHT22;47065;52.898;6.992;2023-09-18T14:29:29;23.50;99.90
61201;DHT22;47065;52.898;6.992;2023-09-18T14:32:04;23.50;99.90
61201;DHT22;47065;52.898;6.992;2023-09-18T14:34:32;23.60;99.90
61201;DHT22;47065;52.898;6.992;2023-09-18T14:37:03;23.70;99.90
61201;DHT22;47065;52.898;6.992;2023-09-18T14:39:33;23.70;99.90
61201;DHT22;47065;52.898;6.992;2023-09-18T14:41:59;23.70;99.90
61201;DHT22;47065;52.898;6.992;2023-09-18T14:44:26;23.70;99.90
61201;DHT22;47065;52.898;6.992;2023-09-18T14:46:53;23.60;99.90
61201;DHT22;47065;52.898;6.992;2023-09-18T14:49:19;23.60;99.90
61201;DHT22;47065;52.898;6.992;2023-09-18T14:51:45;23.60;99.90
61201;DHT22;47065;52.898;6.992;2023-09-18T14:54:11;23.60;99.90
61201;DHT22;47065;52.898;6.992;2023-09-18T14:56:37;23.60;99.90
61201;DHT22;47065;52.898;6.992;2023-09-18T14:59:05;23.60;99.90
61201;DHT22;47065;52.898;6.992;2023-09-18T15:01:33;23.60;99.90
61201;DHT22;47065;52.898;6.992;2023-09-18T15:03:58;23.50;99.90
61201;DHT22;47065;52.898;6.992;2023-09-18T15:06:24;23.50;99.90
61201;DHT22;47065;52.898;6.992;2023-09-18T15:08:50;23.40;99.90
61201;DHT22;47065;52.898;6.992;2023-09-18T15:11:16;23.30;99.90
61201;DHT22;47065;52.898;6.992;2023-09-18T15:13:45;23.20;99.90
61201;DHT22;47065;52.898;6.992;2023-09-18T15:16:11;23.20;99.90
61201;DHT22;47065;52.898;6.992;2023-09-18T15:18:37;23.20;99.90
61201;DHT22;47065;52.898;6.992;2023-09-18T15:21:03;23.20;99.90
61201;DHT22;47065;52.898;6.992;2023-09-18T15:23:28;23.20;99.90
61201;DHT22;47065;52.898;6.992;2023-09-18T15:25:55;23.10;99.90
61201;DHT22;47065;52.898;6.992;2023-09-18T15:28:26;23.00;99.90
61201;DHT22;47065;52.898;6.992;2023-09-18T15:30:54;23.00;99.90
61201;DHT22;47065;52.898;6.992;2023-09-18T15:33:20;23.10;99.90
61201;DHT22;47065;52.898;6.992;2023-09-18T15:35:53;23.10;99.90
61201;DHT22;47065;52.898;6.992;2023-09-18T15:38:19;23.10;99.90
61201;DHT22;47065;52.898;6.992;2023-09-18T15:40:46;23.10;99.90
61201;DHT22;47065;52.898;6.992;2023-09-18T15:43:12;23.10;99.90
61201;DHT22;47065;52.898;6.992;2023-09-18T15:45:37;23.00;99.90